Time;durP1;ratioP1;P1;durP2;ratioP2;P2;SDS_P1;SDS_P2;PMS_P1;PMS_P2;Temp;Humidity;BMP_temperature;BMP_pressure;BME280_temperature;BME280_humidity;BME280_pressure;Samples;Min_cycle;Max_cycle;Signal;HPM_P1;HPM_P2
2022/04/09 00:02:36;;;;;;;;;;;;;;;20.32;40.95;99755.80;104305;1313;61989;-84
2022/04/09 00:05:16;;;;;;;;;;;;;;;20.33;40.80;99752.38;104199;1313;71782;-84
2022/04/09 00:07:59;;;;;;;;;;;;;;;20.32;40.83;99755.08;104311;1313;75382;-83
2022/04/09 00:10:24;;;;;;;;;;;;;;;20.32;40.88;99750.63;104304;1313;62041;-83
2022/04/09 00:12:50;;;;;;;;;;;;;;;20.32;40.86;99742.21;104314;1313;63159;-82
2022/04/09 00:15:29;;;;;;;;;;;;;;;20.32;40.87;99735.27;104283;1313;62063;-84
2022/04/09 00:18:15;;;;;;;;;;;;;;;20.32;40.96;99727.42;104336;1312;75551;-83
2022/04/09 00:20:55;;;;;;;;;;;;;;;20.32;41.01;99727.23;104314;1313;62194;-82
2022/04/09 00:23:39;;;;;;;;;;;;;;;20.32;40.95;99734.56;104328;1313;61985;-83
2022/04/09 00:26:48;;;;;;;;;;;;;;;20.32;40.89;99735.10;104237;1313;74631;-84
2022/04/09 00:29:34;;;;;;;;;;;;;;;20.32;40.90;99744.02;104325;1314;75977;-80
2022/04/09 00:32:09;;;;;;;;;;;;;;;20.32;40.95;99743.64;104327;1313;62104;-85
2022/04/09 00:34:46;;;;;;;;;;;;;;;20.32;40.88;99745.45;104315;1313;61981;-84
2022/04/09 00:37:35;;;;;;;;;;;;;;;20.32;40.88;99744.02;104350;1313;72741;-84
2022/04/09 00:40:13;;;;;;;;;;;;;;;20.32;40.94;99741.36;104488;1305;74875;-82
2022/04/09 00:42:44;;;;;;;;;;;;;;;20.32;40.85;99739.73;104758;1305;61993;-83
2022/04/09 00:45:44;;;;;;;;;;;;;;;;;;;;;
2022/04/09 00:48:28;;;;;;;;;;;;;;;20.32;40.84;99733.66;104319;1314;71983;-82
2022/04/09 00:51:38;;;;;;;;;;;;;;;;;;;;;
2022/04/09 00:54:20;;;;;;;;;;;;;;;20.32;41.01;99736.91;104302;1313;62004;-83
2022/04/09 00:56:48;;;;;;;;;;;;;;;20.32;40.93;99734.39;104315;1313;62118;-82
2022/04/09 00:59:40;;;;;;;;;;;;;;;20.32;41.01;99737.79;104353;1313;72771;-81
2022/04/09 01:02:23;;;;;;;;;;;;;;;;;;;;;
2022/04/09 01:04:58;;;;;;;;;;;;;;;20.32;40.92;99743.67;104307;1314;62065;-83
2022/04/09 01:07:38;;;;;;;;;;;;;;;20.32;40.94;99742.44;104302;1313;61980;-87
2022/04/09 01:10:19;;;;;;;;;;;;;;;20.32;41.12;99738.33;104299;1313;72693;-83
2022/04/09 01:13:03;;;;;;;;;;;;;;;20.31;41.08;99732.86;104328;1314;75561;-84
2022/04/09 01:15:58;;;;;;;;;;;;;;;20.31;40.96;99724.80;104316;1314;62140;-86
2022/04/09 01:18:35;;;;;;;;;;;;;;;;;;;;;
2022/04/09 01:21:21;;;;;;;;;;;;;;;20.31;41.14;99713.17;104301;1313;74213;-80
2022/04/09 01:23:46;;;;;;;;;;;;;;;20.31;41.08;99709.64;104320;1313;76803;-83
2022/04/09 01:26:21;;;;;;;;;;;;;;;20.30;40.91;99707.35;104483;1306;62133;-83
2022/04/09 01:29:17;;;;;;;;;;;;;;;20.30;40.87;99702.73;104746;1304;60379;-86
2022/04/09 01:32:00;;;;;;;;;;;;;;;20.30;40.92;99707.21;104818;1305;72648;-84
2022/04/09 01:34:46;;;;;;;;;;;;;;;20.30;40.97;99704.54;104748;1306;75620;-83
2022/04/09 01:37:42;;;;;;;;;;;;;;;20.30;40.76;99707.74;104755;1305;61887;-86
2022/04/09 01:40:44;;;;;;;;;;;;;;;;;;;;;
2022/04/09 01:43:44;;;;;;;;;;;;;;;20.30;40.81;99706.31;103583;1314;72852;-85
2022/04/09 01:46:44;;;;;;;;;;;;;;;20.30;40.86;99710.07;103243;1320;76783;-87
2022/04/09 01:49:10;;;;;;;;;;;;;;;20.30;40.89;99710.98;103308;1322;62131;-84
2022/04/09 01:51:56;;;;;;;;;;;;;;;20.30;40.77;99714.89;103317;1323;61988;-82
2022/04/09 01:54:41;;;;;;;;;;;;;;;20.31;40.92;99720.73;103258;1322;72839;-83
2022/04/09 01:57:44;;;;;;;;;;;;;;;20.30;40.88;99722.03;103351;1322;75485;-86
2022/04/09 02:00:11;;;;;;;;;;;;;;;20.30;40.88;99725.41;103357;1323;62148;-83
2022/04/09 02:03:22;;;;;;;;;;;;;;;20.30;40.93;99726.15;103303;1321;61879;-86
2022/04/09 02:06:34;;;;;;;;;;;;;;;;;;;;;
2022/04/09 02:09:13;;;;;;;;;;;;;;;;;;;;;
2022/04/09 02:12:08;;;;;;;;;;;;;;;20.30;40.89;99719.21;103007;1325;62122;-82
2022/04/09 02:14:56;;;;;;;;;;;;;;;20.30;40.83;99715.96;102966;1326;61983;-84
2022/04/09 02:17:40;;;;;;;;;;;;;;;20.30;40.85;99718.30;103108;1322;74045;-82
2022/04/09 02:20:29;;;;;;;;;;;;;;;20.30;40.80;99709.39;103432;1318;77008;-84
2022/04/09 02:23:35;;;;;;;;;;;;;;;20.29;40.87;99702.98;103543;1317;62106;-79
2022/04/09 02:26:03;;;;;;;;;;;;;;;20.29;40.99;99695.48;104014;1317;61991;-84
2022/04/09 02:28:50;;;;;;;;;;;;;;;20.29;40.90;99695.14;103966;1317;72836;-80
2022/04/09 02:31:35;;;;;;;;;;;;;;;20.29;40.91;99700.29;103969;1316;76792;-82
2022/04/09 02:34:12;;;;;;;;;;;;;;;20.29;40.94;99699.23;104016;1317;62090;-84
2022/04/09 02:36:59;;;;;;;;;;;;;;;20.29;40.86;99694.05;104013;1317;60759;-82
2022/04/09 02:39:37;;;;;;;;;;;;;;;20.29;41.04;99688.20;103976;1314;72971;-83
2022/04/09 02:42:12;;;;;;;;;;;;;;;20.29;40.79;99682.87;104335;1313;76463;-82
2022/04/09 02:44:43;;;;;;;;;;;;;;;20.28;40.81;99675.89;104217;1314;61967;-85
2022/04/09 02:47:21;;;;;;;;;;;;;;;20.28;40.75;99671.67;104165;1314;62200;-83
2022/04/09 02:49:50;;;;;;;;;;;;;;;20.28;40.97;99673.63;104177;1314;72733;-83
2022/04/09 02:52:31;;;;;;;;;;;;;;;20.28;40.99;99667.04;104128;1314;75625;-85
2022/04/09 02:55:10;;;;;;;;;;;;;;;;;;;;;
2022/04/09 02:57:43;;;;;;;;;;;;;;;20.27;40.83;99657.95;102783;1326;62162;-83
2022/04/09 03:00:29;;;;;;;;;;;;;;;20.27;40.79;99654.77;102915;1320;62208;-83
2022/04/09 03:02:57;;;;;;;;;;;;;;;20.26;40.83;99650.65;103390;1320;75664;-84
2022/04/09 03:05:48;;;;;;;;;;;;;;;20.26;40.84;99646.77;103516;1319;62130;-83
2022/04/09 03:08:17;;;;;;;;;;;;;;;20.26;40.88;99643.60;103413;1318;62023;-86
2022/04/09 03:10:53;;;;;;;;;;;;;;;20.26;40.76;99641.60;103565;1320;72729;-87
2022/04/09 03:13:45;;;;;;;;;;;;;;;20.26;40.81;99638.22;103427;1320;75567;-84
2022/04/09 03:16:21;;;;;;;;;;;;;;;20.25;40.81;99637.55;103745;1317;60140;-82
2022/04/09 03:19:12;;;;;;;;;;;;;;;20.25;40.86;99638.98;103829;1317;62083;-82
2022/04/09 03:21:47;;;;;;;;;;;;;;;20.25;40.91;99638.44;103178;1322;74174;-82
2022/04/09 03:24:21;;;;;;;;;;;;;;;20.26;40.80;99644.31;103287;1323;62212;-86
2022/04/09 03:27:30;;;;;;;;;;;;;;;20.25;40.89;99651.48;103763;1317;61979;-83
2022/04/09 03:30:09;;;;;;;;;;;;;;;20.25;40.89;99652.19;104274;1313;62105;-80
2022/04/09 03:32:37;;;;;;;;;;;;;;;20.26;40.90;99657.48;104325;1314;72828;-85
2022/04/09 03:35:13;;;;;;;;;;;;;;;20.26;40.91;99669.66;104249;1314;75464;-86
2022/04/09 03:37:45;;;;;;;;;;;;;;;20.25;40.97;99662.20;104318;1314;61984;-84
2022/04/09 03:40:22;;;;;;;;;;;;;;;20.25;40.73;99662.73;104243;1314;62279;-84
2022/04/09 03:43:17;;;;;;;;;;;;;;;20.25;40.92;99661.86;104324;1314;73856;-85
2022/04/09 03:45:56;;;;;;;;;;;;;;;20.25;40.89;99662.43;103733;1320;77027;-84
2022/04/09 03:48:37;;;;;;;;;;;;;;;20.25;40.81;99657.23;103658;1319;62020;-83
2022/04/09 03:51:15;;;;;;;;;;;;;;;20.24;40.84;99650.85;103729;1320;62119;-79
2022/04/09 03:54:10;;;;;;;;;;;;;;;20.25;40.79;99647.79;103544;1319;72857;-83
2022/04/09 03:56:45;;;;;;;;;;;;;;;20.25;40.85;99647.39;103518;1319;76722;-86
2022/04/09 03:59:22;;;;;;;;;;;;;;;20.25;40.75;99645.11;103941;1314;62187;-86
2022/04/09 04:02:06;;;;;;;;;;;;;;;20.25;40.94;99644.90;104305;1312;61994;-84
2022/04/09 04:04:34;;;;;;;;;;;;;;;20.25;40.98;99639.73;104289;1314;72735;-85
2022/04/09 04:07:52;;;;;;;;;;;;;;;20.25;40.93;99648.14;104319;1313;74454;-86
2022/04/09 04:10:23;;;;;;;;;;;;;;;20.25;40.83;99655.59;104302;1313;62090;-82
2022/04/09 04:12:57;;;;;;;;;;;;;;;20.26;40.93;99659.86;104306;1313;62092;-84
2022/04/09 04:15:54;;;;;;;;;;;;;;;20.25;40.91;99656.67;103830;1317;72027;-82
2022/04/09 04:18:20;;;;;;;;;;;;;;;20.25;40.90;99660.95;104087;1317;76732;-84
2022/04/09 04:20:48;;;;;;;;;;;;;;;20.26;40.77;99665.75;104112;1317;62137;-84
2022/04/09 04:23:16;;;;;;;;;;;;;;;20.25;40.80;99666.51;104285;1309;62274;-84
2022/04/09 04:25:54;;;;;;;;;;;;;;;20.25;40.75;99665.08;104354;1312;74116;-83
2022/04/09 04:28:48;;;;;;;;;;;;;;;20.25;40.81;99668.80;104482;1309;75514;-83
2022/04/09 04:31:32;;;;;;;;;;;;;;;20.26;40.77;99669.14;104109;1315;62146;-85
2022/04/09 04:34:20;;;;;;;;;;;;;;;20.26;40.73;99672.33;103838;1317;62114;-87
2022/04/09 04:37:06;;;;;;;;;;;;;;;20.26;40.71;99672.52;104084;1317;72896;-81
2022/04/09 04:39:52;;;;;;;;;;;;;;;20.26;40.80;99672.15;103899;1317;77775;-82
2022/04/09 04:42:41;;;;;;;;;;;;;;;20.26;40.75;99677.69;104105;1315;62177;-84
2022/04/09 04:45:10;;;;;;;;;;;;;;;20.26;40.95;99678.38;104027;1317;61991;-82
2022/04/09 04:48:03;;;;;;;;;;;;;;;20.27;40.71;99680.86;103921;1317;72932;-80
2022/04/09 04:50:31;;;;;;;;;;;;;;;20.27;40.78;99682.42;103822;1317;75861;-84
2022/04/09 04:53:08;;;;;;;;;;;;;;;20.27;40.73;99683.87;103874;1314;62216;-81
2022/04/09 04:58:47;;;;;;;;;;;;;;;20.27;40.82;99697.43;104198;1314;71815;-89
2022/04/09 05:01:18;;;;;;;;;;;;;;;20.27;40.61;99695.83;104303;1313;75815;-84
2022/04/09 05:03:44;;;;;;;;;;;;;;;20.27;40.77;99695.13;104324;1314;59506;-86
2022/04/09 05:06:10;;;;;;;;;;;;;;;20.27;40.61;99693.33;104315;1314;62239;-84
2022/04/09 05:08:46;;;;;;;;;;;;;;;;;;;;;
2022/04/09 05:11:25;;;;;;;;;;;;;;;;;;;;;
2022/04/09 05:14:01;;;;;;;;;;;;;;;20.28;40.81;99695.98;104873;1305;62096;-82
2022/04/09 05:17:35;;;;;;;;;;;;;;;20.27;40.73;99693.67;104883;1305;61995;-83
2022/04/09 05:19:47;;;;;;;;;;;;;;;20.28;40.82;99693.46;104790;1305;73826;-81
2022/04/09 05:23:00;;;;;;;;;;;;;;;;;;;;;
2022/04/09 05:25:46;;;;;;;;;;;;;;;;;;;;;
2022/04/09 05:28:54;;;;;;;;;;;;;;;20.29;40.82;99683.34;104738;1305;62242;-84
2022/04/09 05:31:31;;;;;;;;;;;;;;;20.30;40.76;99685.27;104663;1306;73977;-87
2022/04/09 05:34:11;;;;;;;;;;;;;;;20.30;40.89;99688.98;104693;1305;75816;-84
2022/04/09 05:37:07;;;;;;;;;;;;;;;20.31;40.91;99689.47;104733;1305;62135;-81
2022/04/09 05:39:43;;;;;;;;;;;;;;;20.31;41.03;99690.88;104762;1305;62113;-83
2022/04/09 05:42:29;;;;;;;;;;;;;;;;;;;;;
2022/04/09 05:45:23;;;;;;;;;;;;;;;20.32;40.98;99692.56;104847;1305;75554;-82
2022/04/09 05:48:29;;;;;;;;;;;;;;;20.33;41.17;99688.52;104887;1305;62085;-81
2022/04/09 05:51:25;;;;;;;;;;;;;;;20.34;40.98;99686.67;104420;1309;63773;-83
2022/04/09 05:54:12;;;;;;;;;;;;;;;20.35;41.30;99680.66;104324;1311;73266;-84
2022/04/09 05:57:04;;;;;;;;;;;;;;;20.36;41.26;99685.77;104375;1311;76416;-82
2022/04/09 05:59:54;;;;;;;;;;;;;;;20.37;41.20;99682.06;104417;1311;62005;-84
2022/04/09 06:02:36;;;;;;;;;;;;;;;20.39;41.42;99682.30;104427;1311;61983;-86
2022/04/09 06:05:32;;;;;;;;;;;;;;;20.40;41.45;99676.67;104328;1311;71934;-87
2022/04/09 06:08:20;;;;;;;;;;;;;;;20.41;41.59;99671.91;104311;1311;75632;-86
2022/04/09 06:11:04;;;;;;;;;;;;;;;20.42;41.68;99671.12;104413;1311;62216;-81
2022/04/09 06:13:54;;;;;;;;;;;;;;;20.44;41.65;99674.95;104402;1311;62128;-83
2022/04/09 06:19:50;;;;;;;;;;;;;;;20.46;41.67;99669.42;103089;1322;74281;-79
2022/04/09 06:22:18;;;;;;;;;;;;;;;20.47;41.70;99672.19;103084;1323;61988;-80
2022/04/09 06:24:52;;;;;;;;;;;;;;;20.48;41.80;99679.25;102970;1322;62129;-81
2022/04/09 06:27:51;;;;;;;;;;;;;;;;;;;;;
2022/04/09 06:30:12;;;;;;;;;;;;;;;20.50;41.86;99676.69;103369;1319;74563;-80
2022/04/09 06:32:51;;;;;;;;;;;;;;;20.51;41.88;99675.36;103500;1319;62269;-80
2022/04/09 06:35:26;;;;;;;;;;;;;;;20.52;42.03;99668.83;103616;1316;61994;-81
2022/04/09 06:38:02;;;;;;;;;;;;;;;20.54;42.03;99673.15;103677;1317;62896;-80
2022/04/09 06:40:28;;;;;;;;;;;;;;;20.55;41.97;99676.13;103361;1319;75529;-86
2022/04/09 06:43:03;;;;;;;;;;;;;;;20.56;41.95;99676.59;103320;1320;62174;-84
2022/04/09 06:45:38;;;;;;;;;;;;;;;20.56;41.84;99677.04;103398;1319;62684;-87
2022/04/09 06:48:30;;;;;;;;;;;;;;;;;;;;;
2022/04/09 06:51:16;;;;;;;;;;;;;;;20.58;41.90;99675.15;103521;1319;75979;-84
2022/04/09 06:54:09;;;;;;;;;;;;;;;20.58;41.93;99668.86;102966;1325;61965;-83
2022/04/09 06:56:48;;;;;;;;;;;;;;;20.59;42.01;99665.39;103450;1311;61982;-84
2022/04/09 06:59:34;;;;;;;;;;;;;;;20.60;42.12;99669.42;104335;1311;72883;-84
2022/04/09 07:02:24;;;;;;;;;;;;;;;20.60;42.03;99664.38;104365;1311;75966;-86
2022/04/09 07:04:49;;;;;;;;;;;;;;;20.60;42.22;99664.71;104402;1311;62115;-82
2022/04/09 07:07:46;;;;;;;;;;;;;;;;;;;;;
2022/04/09 07:10:12;;;;;;;;;;;;;;;20.62;41.99;99665.36;104204;1311;72554;-83
2022/04/09 07:12:40;;;;;;;;;;;;;;;20.62;41.99;99664.59;104201;1311;62258;-81
2022/04/09 07:15:23;;;;;;;;;;;;;;;20.63;42.08;99660.80;104368;1311;62702;-83
2022/04/09 07:17:55;;;;;;;;;;;;;;;20.63;42.05;99655.25;104237;1311;62132;-81
2022/04/09 07:20:26;;;;;;;;;;;;;;;20.64;42.04;99656.07;104231;1311;73988;-86
2022/04/09 07:22:55;;;;;;;;;;;;;;;20.64;41.97;99658.55;104109;1311;76536;-82
2022/04/09 07:25:33;;;;;;;;;;;;;;;20.64;42.09;99657.25;104300;1311;61681;-85
2022/04/09 07:28:11;;;;;;;;;;;;;;;20.64;42.17;99658.50;104317;1312;62122;-85
2022/04/09 07:30:44;;;;;;;;;;;;;;;20.66;42.17;99665.91;104399;1306;74206;-87
2022/04/09 07:33:40;;;;;;;;;;;;;;;;;;;;;
2022/04/09 07:36:14;;;;;;;;;;;;;;;20.66;42.13;99662.09;104889;1305;61985;-84
2022/04/09 07:38:45;;;;;;;;;;;;;;;20.66;42.23;99659.79;104900;1305;60583;-83
2022/04/09 07:41:34;;;;;;;;;;;;;;;20.67;41.98;99664.55;104659;1305;73705;-82
2022/04/09 07:44:03;;;;;;;;;;;;;;;20.67;42.03;99663.26;104840;1305;76649;-85
2022/04/09 07:46:34;;;;;;;;;;;;;;;20.67;42.15;99663.79;104686;1305;61970;-83
2022/04/09 07:49:05;;;;;;;;;;;;;;;20.67;42.18;99666.30;104728;1305;61938;-82
2022/04/09 07:51:39;;;;;;;;;;;;;;;20.67;42.08;99667.04;104695;1305;72710;-87
2022/04/09 07:54:13;;;;;;;;;;;;;;;20.67;42.07;99659.89;104707;1305;75485;-80
2022/04/09 07:57:16;;;;;;;;;;;;;;;20.67;42.32;99663.26;104708;1305;62059;-81
2022/04/09 07:59:42;;;;;;;;;;;;;;;20.67;42.06;99662.02;104732;1305;62327;-85
2022/04/09 08:02:38;;;;;;;;;;;;;;;;;;;;;
2022/04/09 08:05:24;;;;;;;;;;;;;;;20.68;42.21;99664.09;104208;1313;76680;-85
2022/04/09 08:08:04;;;;;;;;;;;;;;;;;;;;;
2022/04/09 08:10:46;;;;;;;;;;;;;;;20.68;42.07;99650.33;104227;1313;61980;-86
2022/04/09 08:13:24;;;;;;;;;;;;;;;20.68;42.24;99649.08;104278;1313;72827;-83
2022/04/09 08:15:52;;;;;;;;;;;;;;;20.67;42.34;99646.27;104293;1313;75906;-83
2022/04/09 08:18:51;;;;;;;;;;;;;;;20.68;42.27;99646.40;104238;1313;61918;-84
2022/04/09 08:21:17;;;;;;;;;;;;;;;20.68;42.25;99642.48;104304;1313;62233;-83
2022/04/09 08:23:56;;;;;;;;;;;;;;;;;;;;;
2022/04/09 08:26:28;;;;;;;;;;;;;;;20.68;42.42;99636.05;104318;1313;75490;-85
2022/04/09 08:28:56;;;;;;;;;;;;;;;20.68;42.22;99634.80;104257;1313;63085;-83
2022/04/09 08:31:47;;;;;;;;;;;;;;;20.68;42.40;99636.77;104082;1313;62181;-82
2022/04/09 08:34:30;;;;;;;;;;;;;;;20.67;42.31;99634.81;104142;1313;73031;-83
2022/04/09 08:37:19;;;;;;;;;;;;;;;20.67;42.36;99635.34;104201;1313;77507;-83
2022/04/09 08:39:58;;;;;;;;;;;;;;;;;;;;;
2022/04/09 08:42:28;;;;;;;;;;;;;;;20.68;42.35;99629.61;104552;1305;62399;-84
2022/04/09 08:45:19;;;;;;;;;;;;;;;20.67;42.26;99632.32;104648;1305;73174;-83
2022/04/09 08:48:04;;;;;;;;;;;;;;;20.68;42.39;99628.37;104553;1306;76605;-82
2022/04/09 08:50:29;;;;;;;;;;;;;;;20.68;42.44;99626.73;104869;1305;62043;-84
2022/04/09 08:53:19;;;;;;;;;;;;;;;20.68;42.24;99625.50;104761;1306;62105;-83
2022/04/09 08:56:08;;;;;;;;;;;;;;;;;;;;;
2022/04/09 08:58:57;;;;;;;;;;;;;;;20.68;42.37;99620.30;104883;1304;75673;-84
2022/04/09 09:01:34;;;;;;;;;;;;;;;20.68;42.44;99624.42;104900;1305;62077;-84
2022/04/09 09:04:09;;;;;;;;;;;;;;;20.68;42.26;99621.73;104760;1305;62103;-83
2022/04/09 09:07:15;;;;;;;;;;;;;;;20.68;42.36;99619.04;104719;1305;71734;-81
2022/04/09 09:09:51;;;;;;;;;;;;;;;20.68;42.22;99613.85;104872;1305;75430;-86
2022/04/09 09:12:28;;;;;;;;;;;;;;;20.69;42.27;99614.70;104885;1305;62216;-84
2022/04/09 09:14:54;;;;;;;;;;;;;;;20.68;42.29;99610.09;104713;1306;62138;-83
2022/04/09 09:17:56;;;;;;;;;;;;;;;;;;;;;
2022/04/09 09:20:35;;;;;;;;;;;;;;;20.68;42.40;99599.19;104808;1304;76631;-83
2022/04/09 09:23:08;;;;;;;;;;;;;;;20.68;42.45;99601.33;104681;1308;62105;-83
2022/04/09 09:26:07;;;;;;;;;;;;;;;20.68;42.38;99594.92;104302;1314;62095;-82
2022/04/09 09:28:57;;;;;;;;;;;;;;;20.68;42.20;99592.77;104315;1313;73798;-89
2022/04/09 09:31:38;;;;;;;;;;;;;;;20.68;42.48;99588.47;104201;1313;75655;-87
2022/04/09 09:34:18;;;;;;;;;;;;;;;20.68;42.38;99584.71;104371;1313;62188;-79
2022/04/09 09:37:07;;;;;;;;;;;;;;;20.68;42.46;99582.75;104307;1314;62086;-82
2022/04/09 09:39:41;;;;;;;;;;;;;;;20.68;42.61;99577.03;103851;1317;73592;-83
2022/04/09 09:42:16;;;;;;;;;;;;;;;20.68;42.46;99579.01;103252;1320;74804;-85
2022/04/09 09:45:02;;;;;;;;;;;;;;;20.68;42.45;99575.62;103693;1317;62384;-82
2022/04/09 09:47:54;;;;;;;;;;;;;;;20.68;42.50;99567.73;103863;1317;61982;-84
2022/04/09 09:50:45;;;;;;;;;;;;;;;20.68;42.58;99572.91;103850;1317;72962;-84
2022/04/09 09:53:37;;;;;;;;;;;;;;;20.68;42.50;99572.73;103615;1317;75528;-83
2022/04/09 09:56:23;;;;;;;;;;;;;;;20.68;42.44;99565.95;103511;1319;62552;-85
2022/04/09 09:59:08;;;;;;;;;;;;;;;20.68;42.52;99559.67;103624;1319;62218;-84
2022/04/09 10:01:35;;;;;;;;;;;;;;;20.68;42.66;99557.52;103842;1317;73829;-81
2022/04/09 10:04:12;;;;;;;;;;;;;;;20.68;42.53;99554.16;104174;1311;75456;-84
2022/04/09 10:06:57;;;;;;;;;;;;;;;20.68;42.45;99550.40;104332;1311;62097;-83
2022/04/09 10:09:44;;;;;;;;;;;;;;;20.67;42.43;99549.90;104389;1311;61868;-82
2022/04/09 10:12:18;;;;;;;;;;;;;;;20.68;42.33;99543.63;104381;1311;71994;-83
2022/04/09 10:14:54;;;;;;;;;;;;;;;20.68;42.58;99535.21;104300;1312;76425;-83
2022/04/09 10:17:49;;;;;;;;;;;;;;;20.67;42.41;99537.02;104735;1305;62191;-83
2022/04/09 10:20:52;;;;;;;;;;;;;;;20.68;42.41;99531.27;104877;1305;62105;-85
2022/04/09 10:23:59;;;;;;;;;;;;;;;;;;;;;
2022/04/09 10:26:56;;;;;;;;;;;;;;;20.68;42.56;99524.33;104767;1305;74304;-83
2022/04/09 10:29:47;;;;;;;;;;;;;;;20.68;42.58;99524.79;104685;1306;60002;-83
2022/04/09 10:32:36;;;;;;;;;;;;;;;20.68;42.36;99520.33;104829;1305;62065;-84
2022/04/09 10:35:21;;;;;;;;;;;;;;;20.70;42.69;99520.61;104084;1311;71696;-85
2022/04/09 10:38:05;;;;;;;;;;;;;;;20.70;42.52;99518.80;104292;1313;75502;-84
2022/04/09 10:41:14;;;;;;;;;;;;;;;20.70;42.49;99517.33;103778;1317;62029;-85
2022/04/09 10:43:51;;;;;;;;;;;;;;;20.70;42.41;99521.46;103738;1317;60500;-83
2022/04/09 10:46:26;;;;;;;;;;;;;;;20.71;42.42;99519.95;103808;1317;72803;-83
2022/04/09 10:48:57;;;;;;;;;;;;;;;20.71;42.33;99521.52;103861;1316;75708;-83
2022/04/09 10:51:27;;;;;;;;;;;;;;;20.71;42.35;99519.00;103846;1317;62099;-83
2022/04/09 10:54:19;;;;;;;;;;;;;;;20.72;42.16;99513.05;103811;1317;62251;-83
2022/04/09 10:57:03;;;;;;;;;;;;;;;20.72;42.15;99518.09;103401;1319;72986;-81
2022/04/09 10:59:31;;;;;;;;;;;;;;;20.72;42.14;99521.60;103341;1319;75650;-83
2022/04/09 11:01:57;;;;;;;;;;;;;;;20.72;42.18;99518.19;103252;1319;62088;-83
2022/04/09 11:04:50;;;;;;;;;;;;;;;20.73;42.20;99516.86;103493;1318;62008;-81
2022/04/09 11:07:40;;;;;;;;;;;;;;;20.73;42.11;99525.60;102967;1323;75219;-87
2022/04/09 11:10:08;;;;;;;;;;;;;;;20.74;42.10;99522.67;102951;1326;75460;-82
2022/04/09 11:12:49;;;;;;;;;;;;;;;20.74;42.07;99512.83;103197;1318;62229;-80
2022/04/09 11:15:17;;;;;;;;;;;;;;;20.75;42.26;99516.33;103675;1317;62434;-81
2022/04/09 11:17:47;;;;;;;;;;;;;;;20.75;42.00;99520.77;103549;1311;74104;-84
2022/04/09 11:20:17;;;;;;;;;;;;;;;20.76;42.00;99519.29;104400;1310;75593;-87
2022/04/09 11:22:57;;;;;;;;;;;;;;;20.76;42.11;99516.25;104302;1311;62086;-84
2022/04/09 11:25:33;;;;;;;;;;;;;;;20.76;41.81;99516.05;104320;1311;62368;-84
2022/04/09 11:28:14;;;;;;;;;;;;;;;20.76;41.86;99511.21;104347;1311;72761;-86
2022/04/09 11:30:55;;;;;;;;;;;;;;;20.77;41.89;99515.83;104386;1311;74728;-83
2022/04/09 11:34:04;;;;;;;;;;;;;;;20.76;41.68;99513.20;104260;1311;62035;-82
2022/04/09 11:36:29;;;;;;;;;;;;;;;20.77;41.85;99514.58;104424;1310;62619;-79
2022/04/09 11:39:00;;;;;;;;;;;;;;;20.77;41.80;99516.20;104356;1310;62125;-82
2022/04/09 11:41:26;;;;;;;;;;;;;;;20.77;41.84;99512.23;104420;1309;76629;-80
2022/04/09 11:43:57;;;;;;;;;;;;;;;20.77;41.67;99506.90;104367;1306;62116;-82
2022/04/09 11:46:32;;;;;;;;;;;;;;;20.77;41.64;99511.73;104699;1305;62109;-80
2022/04/09 11:49:00;;;;;;;;;;;;;;;20.76;41.84;99512.29;104738;1306;72971;-84
2022/04/09 11:51:35;;;;;;;;;;;;;;;20.76;41.54;99505.91;104575;1306;75565;-87
2022/04/09 11:54:16;;;;;;;;;;;;;;;20.76;41.74;99503.94;104790;1306;61954;-82
2022/04/09 11:56:53;;;;;;;;;;;;;;;20.76;41.77;99500.02;104782;1306;61967;-84
2022/04/09 11:59:21;;;;;;;;;;;;;;;20.75;41.72;99494.86;104782;1304;74036;-85
2022/04/09 12:02:10;;;;;;;;;;;;;;;20.75;41.50;99495.64;104777;1305;75464;-82
2022/04/09 12:04:39;;;;;;;;;;;;;;;20.74;41.71;99496.57;104727;1306;62096;-83
2022/04/09 12:07:25;;;;;;;;;;;;;;;20.74;41.57;99490.86;104859;1306;62161;-83
2022/04/09 12:09:54;;;;;;;;;;;;;;;20.74;41.38;99489.62;104848;1305;74159;-87
2022/04/09 12:12:54;;;;;;;;;;;;;;;;;;;;;
2022/04/09 12:15:19;;;;;;;;;;;;;;;20.74;41.60;99490.16;104788;1306;62051;-83
2022/04/09 12:18:03;;;;;;;;;;;;;;;20.74;41.70;99487.45;104708;1305;62005;-83
2022/04/09 12:21:04;;;;;;;;;;;;;;;20.74;41.54;99482.45;104810;1306;73903;-82
2022/04/09 12:23:39;;;;;;;;;;;;;;;20.73;41.73;99480.02;104860;1306;75400;-83
2022/04/09 12:26:30;;;;;;;;;;;;;;;20.73;41.46;99483.77;104795;1306;62078;-82
2022/04/09 12:29:32;;;;;;;;;;;;;;;20.74;41.49;99480.52;104792;1306;61996;-83
2022/04/09 12:32:36;;;;;;;;;;;;;;;20.74;41.58;99476.04;104360;1313;74101;-84
2022/04/09 12:35:18;;;;;;;;;;;;;;;20.74;41.62;99480.66;103849;1317;75572;-83
2022/04/09 12:38:09;;;;;;;;;;;;;;;20.74;41.65;99476.55;103856;1317;62095;-81
2022/04/09 12:41:09;;;;;;;;;;;;;;;20.74;41.53;99473.67;103072;1323;62129;-83
2022/04/09 12:43:40;;;;;;;;;;;;;;;20.75;41.47;99470.59;103071;1323;73363;-83
2022/04/09 12:46:15;;;;;;;;;;;;;;;20.75;41.53;99462.35;102984;1325;76562;-82
2022/04/09 12:49:01;;;;;;;;;;;;;;;20.75;41.47;99461.65;103069;1323;62216;-84
2022/04/09 12:51:47;;;;;;;;;;;;;;;20.75;41.42;99459.34;103052;1323;62260;-82
2022/04/09 12:54:23;;;;;;;;;;;;;;;20.75;41.47;99464.49;103053;1323;73793;-83
2022/04/09 12:57:12;;;;;;;;;;;;;;;20.75;41.36;99462.18;103008;1323;75404;-85
2022/04/09 12:59:56;;;;;;;;;;;;;;;20.75;41.53;99459.70;103098;1323;61811;-83
2022/04/09 13:02:36;;;;;;;;;;;;;;;20.75;41.48;99462.22;103057;1323;62133;-86
2022/04/09 13:05:07;;;;;;;;;;;;;;;20.75;41.52;99459.67;102944;1322;73099;-84
2022/04/09 13:07:38;;;;;;;;;;;;;;;20.75;41.63;99462.39;103933;1317;75514;-88
2022/04/09 13:10:33;;;;;;;;;;;;;;;20.75;41.42;99466.47;103944;1317;62005;-81
2022/04/09 13:13:07;;;;;;;;;;;;;;;20.75;41.28;99465.24;103912;1318;62044;-84
2022/04/09 13:15:48;;;;;;;;;;;;;;;20.75;41.22;99457.38;104030;1317;72694;-85
2022/04/09 13:18:36;;;;;;;;;;;;;;;20.75;41.34;99449.84;104120;1311;75326;-85
2022/04/09 13:21:26;;;;;;;;;;;;;;;20.75;41.44;99448.45;104036;1317;62012;-85
2022/04/09 13:24:12;;;;;;;;;;;;;;;20.75;41.34;99446.10;104098;1316;62260;-84
2022/04/09 13:26:57;;;;;;;;;;;;;;;20.75;41.21;99444.11;104102;1316;73382;-79
2022/04/09 13:29:38;;;;;;;;;;;;;;;20.75;41.64;99451.10;103964;1316;75834;-83
2022/04/09 13:32:07;;;;;;;;;;;;;;;20.75;41.64;99449.27;103971;1316;62773;-85
2022/04/09 13:34:50;;;;;;;;;;;;;;;;;;;;;
2022/04/09 13:37:42;;;;;;;;;;;;;;;20.76;41.53;99440.30;103997;1316;73172;-82
2022/04/09 13:40:14;;;;;;;;;;;;;;;20.75;41.43;99437.11;104090;1316;76628;-81
2022/04/09 13:42:55;;;;;;;;;;;;;;;20.75;41.55;99436.77;103537;1319;61953;-86
2022/04/09 13:45:52;;;;;;;;;;;;;;;20.75;41.42;99433.23;103425;1319;62323;-87
2022/04/09 13:48:28;;;;;;;;;;;;;;;20.75;41.55;99431.95;103904;1314;73791;-87
2022/04/09 13:51:05;;;;;;;;;;;;;;;20.75;41.68;99432.86;104058;1314;74470;-85
2022/04/09 13:53:48;;;;;;;;;;;;;;;20.75;41.65;99428.72;104105;1314;62199;-84
2022/04/09 13:56:31;;;;;;;;;;;;;;;20.75;41.56;99421.05;104112;1314;61967;-87
2022/04/09 13:59:11;;;;;;;;;;;;;;;20.75;41.61;99423.88;104315;1310;73923;-81
2022/04/09 14:02:05;;;;;;;;;;;;;;;20.75;41.56;99421.95;104412;1309;75832;-84
2022/04/09 14:04:57;;;;;;;;;;;;;;;20.75;41.58;99417.27;104422;1310;61986;-85
2022/04/09 14:07:44;;;;;;;;;;;;;;;;;;;;;
2022/04/09 14:10:20;;;;;;;;;;;;;;;20.75;41.55;99412.44;104366;1311;72939;-86
2022/04/09 14:13:27;;;;;;;;;;;;;;;20.76;41.60;99410.60;104429;1311;74342;-82
2022/04/09 14:16:19;;;;;;;;;;;;;;;20.76;41.60;99413.64;104499;1309;62091;-85
2022/04/09 14:18:54;;;;;;;;;;;;;;;20.76;41.63;99415.59;104534;1309;61985;-83
2022/04/09 14:21:29;;;;;;;;;;;;;;;20.76;41.78;99414.16;104251;1310;73742;-82
2022/04/09 14:24:18;;;;;;;;;;;;;;;20.75;41.71;99410.44;104312;1310;75598;-83
2022/04/09 14:26:56;;;;;;;;;;;;;;;;;;;;;
2022/04/09 14:29:30;;;;;;;;;;;;;;;20.76;41.45;99407.55;104889;1305;61858;-85
2022/04/09 14:32:21;;;;;;;;;;;;;;;;;;;;;
2022/04/09 14:35:30;;;;;;;;;;;;;;;;;;;;;
2022/04/09 14:38:19;;;;;;;;;;;;;;;20.75;41.91;99408.85;104334;1313;62106;-83